createdAt,value
2022-12-20T00:01:35.539Z,4.03
2022-12-20T00:04:05.781Z,4.10
2022-12-20T00:06:36.927Z,3.65
2022-12-20T00:09:07.080Z,4.18
2022-12-20T00:11:35.139Z,3.85
2022-12-20T00:14:02.639Z,3.80
2022-12-20T00:16:30.327Z,3.85
2022-12-20T00:19:03.527Z,3.85
2022-12-20T00:21:32.409Z,3.50
2022-12-20T00:24:00.666Z,3.63
2022-12-20T00:28:57.409Z,4.43
2022-12-20T00:31:27.080Z,3.72
2022-12-20T00:33:56.133Z,3.70
2022-12-20T00:36:26.153Z,3.90
2022-12-20T00:38:55.001Z,3.25
2022-12-20T00:41:25.319Z,3.17
2022-12-20T00:43:53.470Z,3.20
2022-12-20T00:46:26.498Z,2.75
2022-12-20T00:48:54.934Z,3.30
2022-12-20T00:51:25.962Z,3.08
2022-12-20T00:53:54.318Z,2.85
2022-12-20T00:56:22.640Z,2.92
2022-12-20T00:58:50.379Z,2.75
2022-12-20T01:01:23.965Z,3.25
2022-12-20T01:03:52.574Z,2.78
2022-12-20T01:06:20.724Z,2.65
2022-12-20T01:08:51.062Z,2.90
2022-12-20T01:11:24.699Z,3.17
2022-12-20T01:13:54.798Z,3.35
2022-12-20T01:16:25.474Z,2.85
2022-12-20T01:18:53.552Z,3.53
2022-12-20T01:21:22.476Z,3.45
2022-12-20T01:23:50.822Z,3.35
2022-12-20T01:26:20.687Z,3.90
2022-12-20T01:28:52.099Z,3.75
2022-12-20T01:31:21.127Z,3.40
2022-12-20T01:33:50.058Z,3.47
2022-12-20T01:36:20.292Z,3.17
2022-12-20T01:38:47.979Z,3.33
2022-12-20T01:41:22.441Z,3.60
2022-12-20T01:43:55.685Z,3.33
2022-12-20T01:46:26.195Z,3.70
2022-12-20T01:48:55.395Z,3.85
2022-12-20T01:51:24.723Z,4.10
2022-12-20T01:53:58.016Z,3.72
2022-12-20T01:56:25.641Z,4.30
2022-12-20T01:58:55.086Z,3.17
2022-12-20T02:01:25.160Z,4.20
2022-12-20T02:03:54.999Z,3.78
2022-12-20T02:06:26.006Z,4.32
2022-12-20T02:08:56.594Z,3.78
2022-12-20T02:11:46.333Z,4.13
2022-12-20T02:14:16.980Z,4.50
2022-12-20T02:17:12.280Z,4.85
2022-12-20T02:20:11.252Z,4.43
2022-12-20T02:23:02.540Z,4.07
2022-12-20T02:25:57.718Z,3.00
2022-12-20T02:28:30.327Z,3.38
2022-12-20T02:31:01.065Z,3.25
2022-12-20T02:33:28.981Z,3.20
2022-12-20T02:35:56.534Z,3.40
2022-12-20T02:38:34.676Z,3.17
2022-12-20T02:41:11.898Z,3.40
2022-12-20T02:44:01.849Z,3.50
2022-12-20T02:46:30.938Z,3.33
2022-12-20T02:49:04.315Z,3.88
2022-12-20T02:51:33.321Z,2.55
2022-12-20T02:54:02.400Z,2.80
2022-12-20T02:56:42.819Z,2.97
2022-12-20T02:59:36.258Z,3.03
2022-12-20T03:02:05.404Z,4.05
2022-12-20T03:04:37.610Z,3.92
2022-12-20T03:07:08.427Z,4.05
2022-12-20T03:09:39.657Z,4.60
2022-12-20T03:12:08.459Z,4.53
2022-12-20T03:14:41.103Z,4.45
2022-12-20T03:17:10.696Z,4.50
2022-12-20T03:19:38.975Z,4.88
2022-12-20T03:22:06.699Z,4.35
2022-12-20T03:24:34.550Z,4.53
2022-12-20T03:27:06.637Z,4.22
2022-12-20T03:29:34.141Z,4.15
2022-12-20T03:32:01.809Z,4.07
2022-12-20T03:34:29.923Z,4.18
2022-12-20T03:36:57.440Z,4.85
2022-12-20T03:39:25.201Z,4.88
2022-12-20T03:41:54.540Z,4.63
2022-12-20T03:44:22.028Z,4.85
2022-12-20T03:46:50.475Z,4.93
2022-12-20T03:49:18.578Z,4.78
2022-12-20T03:51:50.836Z,4.30
2022-12-20T03:54:18.989Z,4.97
2022-12-20T03:57:07.381Z,4.90
2022-12-20T03:59:35.654Z,5.28
2022-12-20T04:02:05.909Z,5.22
2022-12-20T04:04:34.712Z,4.80
2022-12-20T04:07:02.181Z,5.00
2022-12-20T04:09:29.809Z,4.80
2022-12-20T04:12:04.897Z,5.38
2022-12-20T04:14:34.279Z,5.28
2022-12-20T04:17:01.805Z,5.10
2022-12-20T04:19:29.384Z,5.43
2022-12-20T04:22:04.791Z,4.80
2022-12-20T04:24:44.051Z,5.40
2022-12-20T04:27:20.415Z,5.78
2022-12-20T04:29:47.985Z,6.05
2022-12-20T04:32:21.240Z,5.50
2022-12-20T04:34:50.039Z,5.30
2022-12-20T04:37:18.698Z,5.10
2022-12-20T04:39:51.012Z,5.15
2022-12-20T04:42:21.785Z,5.40
2022-12-20T04:44:50.927Z,4.72
2022-12-20T04:47:24.297Z,5.22
2022-12-20T04:49:53.430Z,6.40
2022-12-20T04:52:43.581Z,6.32
2022-12-20T04:55:15.228Z,6.05
2022-12-20T04:57:42.792Z,5.95
2022-12-20T05:00:11.376Z,6.70
2022-12-20T05:02:43.672Z,7.60
2022-12-20T05:05:15.344Z,7.00
2022-12-20T05:07:48.896Z,6.38
2022-12-20T05:10:16.491Z,6.88
2022-12-20T05:12:45.189Z,6.75
2022-12-20T05:15:21.081Z,6.95
2022-12-20T05:17:48.730Z,6.50
2022-12-20T05:20:16.630Z,4.70
2022-12-20T05:23:05.268Z,7.25
2022-12-20T05:25:54.135Z,6.28
2022-12-20T05:28:22.257Z,6.60
2022-12-20T05:30:50.116Z,6.20
2022-12-20T05:33:17.776Z,6.40
2022-12-20T05:35:45.278Z,6.63
2022-12-20T05:38:15.322Z,5.57
2022-12-20T05:40:43.337Z,5.93
2022-12-20T05:43:12.164Z,5.93
2022-12-20T05:45:50.041Z,6.13
2022-12-20T05:48:21.880Z,5.70
2022-12-20T05:50:50.082Z,5.20
2022-12-20T05:53:24.929Z,5.50
2022-12-20T05:55:55.591Z,5.68
2022-12-20T05:58:28.760Z,5.13
2022-12-20T06:01:02.380Z,5.57
2022-12-20T06:03:32.327Z,5.05
2022-12-20T06:06:01.160Z,4.80
2022-12-20T06:08:32.170Z,4.88
2022-12-20T06:11:04.897Z,4.90
2022-12-20T06:13:37.287Z,4.78
2022-12-20T06:16:05.057Z,5.20
2022-12-20T06:18:34.004Z,5.22
2022-12-20T06:21:03.847Z,4.75
2022-12-20T06:23:34.318Z,4.97
2022-12-20T06:26:11.244Z,5.70
2022-12-20T06:28:52.218Z,5.43
2022-12-20T06:31:25.621Z,5.18
2022-12-20T06:33:55.001Z,5.07
2022-12-20T06:36:25.166Z,5.35
2022-12-20T06:38:58.347Z,5.07
2022-12-20T06:41:25.930Z,5.07
2022-12-20T06:43:54.507Z,5.15
2022-12-20T06:46:22.061Z,4.78
2022-12-20T06:48:50.662Z,5.35
2022-12-20T06:51:19.121Z,5.05
2022-12-20T06:53:47.347Z,5.03
2022-12-20T06:56:15.093Z,4.25
2022-12-20T06:58:42.818Z,4.18
2022-12-20T07:01:10.308Z,4.88
2022-12-20T07:03:37.877Z,4.50
2022-12-20T07:06:05.611Z,4.30
2022-12-20T07:08:33.071Z,4.43
2022-12-20T07:11:10.517Z,4.47
2022-12-20T07:13:46.301Z,4.70
2022-12-20T07:16:19.506Z,3.92
2022-12-20T07:19:25.046Z,4.60
2022-12-20T07:22:14.424Z,4.70
2022-12-20T07:25:02.452Z,4.60
2022-12-20T07:27:34.148Z,4.60
2022-12-20T07:30:10.752Z,4.20
2022-12-20T07:32:59.775Z,2.53
2022-12-20T07:35:39.395Z,1.50
2022-12-20T07:38:12.291Z,0.60
2022-12-20T07:40:45.573Z,0.50
2022-12-20T07:43:15.640Z,0.30
2022-12-20T07:45:57.377Z,0.40
2022-12-20T07:48:29.157Z,0.20
2022-12-20T07:51:36.312Z,0.32
2022-12-20T07:54:23.560Z,0.47
2022-12-20T07:56:59.321Z,0.30
2022-12-20T07:59:36.421Z,0.20
2022-12-20T08:02:19.014Z,0.25
2022-12-20T08:05:09.268Z,0.60
2022-12-20T08:07:39.546Z,0.10
2022-12-20T08:10:14.268Z,0.30
2022-12-20T08:12:49.680Z,0.65
2022-12-20T08:15:40.315Z,0.80
2022-12-20T08:18:07.991Z,0.90
2022-12-20T08:20:35.733Z,1.23
2022-12-20T08:23:05.642Z,0.63
2022-12-20T08:25:41.131Z,0.32
2022-12-20T08:28:11.976Z,0.40
2022-12-20T08:30:42.258Z,0.30
2022-12-20T08:33:19.504Z,0.60
2022-12-20T08:35:56.646Z,0.68
2022-12-20T08:38:28.395Z,1.05
2022-12-20T08:41:01.758Z,0.90
2022-12-20T08:43:31.834Z,0.73
2022-12-20T08:46:48.902Z,0.45
2022-12-20T08:49:21.637Z,0.30
2022-12-20T08:51:51.965Z,0.57
2022-12-20T08:54:25.160Z,0.35
2022-12-20T08:56:58.136Z,0.60
2022-12-20T08:59:28.631Z,0.60
2022-12-20T09:01:56.475Z,0.63
2022-12-20T09:04:29.791Z,0.63
2022-12-20T09:06:57.378Z,0.60
2022-12-20T09:09:25.022Z,1.05
2022-12-20T09:11:54.997Z,1.13
2022-12-20T09:14:23.752Z,0.90
2022-12-20T09:16:51.414Z,0.82
2022-12-20T09:19:21.462Z,1.00
2022-12-20T09:21:49.170Z,1.10
2022-12-20T09:24:19.477Z,1.35
2022-12-20T09:26:50.554Z,0.80
2022-12-20T09:29:28.244Z,0.90
2022-12-20T09:31:59.828Z,0.93
2022-12-20T09:34:30.486Z,0.90
2022-12-20T09:37:01.266Z,1.13
2022-12-20T09:39:52.351Z,1.45
2022-12-20T09:42:25.454Z,1.00
2022-12-20T09:45:12.460Z,2.55
2022-12-20T09:50:12.135Z,1.50
2022-12-20T09:52:25.222Z,1.50
2022-12-20T09:59:22.324Z,1.30
2022-12-20T10:01:54.110Z,1.00
2022-12-20T10:04:55.407Z,1.42
2022-12-20T10:08:03.420Z,1.48
2022-12-20T10:11:22.914Z,1.60
2022-12-20T10:14:50.034Z,1.70
2022-12-20T10:17:38.023Z,1.30
2022-12-20T10:20:44.617Z,1.15
2022-12-20T10:23:41.661Z,1.48
2022-12-20T10:26:12.599Z,1.40
2022-12-20T10:28:45.955Z,1.77
2022-12-20T10:31:22.068Z,2.30
2022-12-20T10:33:50.006Z,1.80
2022-12-20T10:39:10.185Z,1.67
2022-12-20T10:41:40.713Z,2.22
2022-12-20T10:44:32.174Z,2.42
2022-12-20T10:47:50.937Z,2.03
2022-12-20T10:50:27.715Z,2.05
2022-12-20T10:53:45.750Z,2.40
2022-12-20T10:56:39.041Z,2.47
2022-12-20T10:59:18.875Z,2.40
2022-12-20T11:01:51.765Z,2.33
2022-12-20T11:04:49.433Z,2.10
2022-12-20T11:07:27.886Z,1.95
2022-12-20T11:10:00.484Z,2.50
2022-12-20T11:12:28.318Z,2.38
2022-12-20T11:15:33.615Z,2.63
2022-12-20T11:19:30.900Z,2.22
2022-12-20T11:23:12.445Z,2.20
2022-12-20T11:27:03.738Z,1.88
2022-12-20T11:29:56.064Z,2.55
2022-12-20T11:33:12.442Z,2.00
2022-12-20T11:44:23.914Z,2.67
2022-12-20T11:48:05.479Z,2.77
2022-12-20T11:51:40.215Z,2.60
2022-12-20T11:55:43.132Z,2.97
2022-12-20T11:59:35.666Z,2.75
2022-12-20T12:10:53.304Z,2.75
2022-12-20T12:18:19.779Z,2.45
2022-12-20T12:22:49.065Z,2.92
2022-12-20T12:38:58.442Z,3.60
2022-12-20T12:57:48.710Z,3.45
2022-12-20T13:01:28.475Z,3.15
2022-12-20T13:05:10.374Z,3.42
2022-12-20T13:09:24.280Z,3.45
2022-12-20T13:15:46.962Z,3.45
2022-12-20T13:27:35.808Z,4.30
2022-12-20T13:30:54.218Z,3.40
2022-12-20T13:34:00.522Z,3.03
2022-12-20T13:38:41.321Z,3.88
2022-12-20T13:40:42.578Z,5.10
2022-12-20T13:47:54.228Z,3.42
2022-12-20T13:50:57.320Z,4.32
2022-12-20T13:57:46.833Z,5.82
2022-12-20T14:01:19.754Z,4.97
2022-12-20T14:05:13.260Z,3.83
2022-12-20T14:08:43.819Z,3.28
2022-12-20T14:16:09.021Z,3.60
2022-12-20T14:18:56.968Z,3.53
2022-12-20T14:27:45.933Z,4.28
2022-12-20T14:30:28.483Z,3.75
2022-12-20T14:34:47.059Z,4.30
2022-12-20T14:38:06.318Z,3.97
2022-12-20T14:45:51.179Z,3.80
2022-12-20T14:48:46.229Z,4.22
2022-12-20T14:53:29.977Z,4.32
2022-12-20T14:57:00.840Z,4.55
2022-12-20T15:13:08.214Z,4.50
2022-12-20T15:16:56.760Z,4.68
2022-12-20T15:24:02.035Z,4.55
2022-12-20T15:42:07.377Z,3.80
2022-12-20T15:45:54.584Z,3.97
2022-12-20T15:49:08.460Z,3.90
2022-12-20T15:52:17.396Z,4.47
2022-12-20T16:15:28.838Z,4.88
2022-12-20T16:27:03.737Z,6.47
2022-12-20T16:34:12.675Z,6.53
2022-12-20T16:41:46.980Z,6.10
2022-12-20T16:45:29.864Z,6.25
2022-12-20T17:00:44.329Z,6.97
2022-12-20T17:12:32.482Z,7.32
2022-12-20T17:16:09.888Z,6.57
2022-12-20T17:20:05.462Z,7.45
2022-12-20T17:22:55.079Z,6.63
2022-12-20T17:26:50.053Z,7.55
2022-12-20T17:29:57.664Z,6.93
2022-12-20T17:32:39.862Z,7.40
2022-12-20T17:36:12.234Z,7.50
2022-12-20T17:44:06.093Z,7.22
2022-12-20T17:50:02.347Z,7.07
2022-12-20T17:53:38.280Z,7.90
2022-12-20T17:56:57.322Z,8.23
2022-12-20T17:59:49.601Z,8.73
2022-12-20T18:03:45.001Z,7.93
2022-12-20T18:07:12.732Z,7.90
2022-12-20T18:22:30.860Z,9.52
2022-12-20T18:29:51.544Z,10.27
2022-12-20T18:32:35.315Z,9.88
2022-12-20T18:36:16.643Z,10.48
2022-12-20T18:45:22.006Z,8.60
2022-12-20T18:57:19.640Z,9.57
2022-12-20T19:09:26.263Z,9.95
2022-12-20T19:13:09.501Z,9.30
2022-12-20T20:01:25.196Z,12.57
2022-12-20T20:03:55.179Z,12.10
2022-12-20T20:06:23.227Z,14.18
2022-12-20T20:08:51.498Z,12.13
2022-12-20T20:13:47.331Z,9.80
2022-12-20T20:16:22.261Z,11.07
2022-12-20T20:18:51.456Z,9.90
2022-12-20T20:21:22.571Z,10.70
2022-12-20T20:23:51.772Z,10.13
2022-12-20T20:26:22.732Z,11.15
2022-12-20T20:28:50.536Z,11.05
2022-12-20T20:31:19.952Z,10.15
2022-12-20T20:33:48.059Z,9.73
2022-12-20T20:38:44.529Z,8.88
2022-12-20T20:41:12.636Z,9.35
2022-12-20T20:46:14.217Z,8.32
2022-12-20T20:48:42.723Z,9.45
2022-12-20T20:51:11.017Z,9.60
2022-12-20T20:53:39.416Z,9.93
2022-12-20T20:56:08.459Z,9.25
2022-12-20T20:58:36.792Z,9.20
2022-12-20T21:01:08.496Z,9.50
2022-12-20T21:03:37.253Z,8.27
2022-12-20T21:08:56.450Z,7.72
2022-12-20T21:11:24.421Z,8.57
2022-12-20T21:13:53.494Z,8.32
2022-12-20T21:16:22.515Z,9.10
2022-12-20T21:18:55.114Z,8.35
2022-12-20T21:21:24.485Z,9.85
2022-12-20T21:23:53.454Z,8.88
2022-12-20T21:26:22.410Z,8.93
2022-12-20T21:28:49.897Z,10.30
2022-12-20T21:31:19.500Z,9.15
2022-12-20T21:33:47.235Z,8.93
2022-12-20T21:36:17.417Z,8.50
2022-12-20T21:38:53.647Z,8.15
2022-12-20T21:41:23.459Z,8.20
2022-12-20T21:43:51.584Z,9.23
2022-12-20T21:46:19.131Z,8.52
2022-12-20T21:48:47.084Z,8.63
2022-12-20T21:53:47.238Z,7.50
2022-12-20T21:56:15.718Z,7.90
2022-12-20T21:58:44.021Z,8.30
2022-12-20T22:01:14.219Z,8.30
2022-12-20T22:03:42.626Z,8.38
2022-12-20T22:06:10.735Z,8.13
2022-12-20T22:08:38.267Z,7.50
2022-12-20T22:11:13.283Z,7.68
2022-12-20T22:13:42.310Z,7.35
2022-12-20T22:16:12.220Z,7.15
2022-12-20T22:18:48.224Z,7.65
2022-12-20T22:21:16.675Z,7.68
2022-12-20T22:23:44.191Z,7.05
2022-12-20T22:26:14.687Z,7.53
2022-12-20T22:28:54.018Z,7.63
2022-12-20T22:31:22.236Z,7.57
2022-12-20T22:33:51.591Z,7.68
2022-12-20T22:36:19.650Z,6.93
2022-12-20T22:38:48.230Z,7.55
2022-12-20T22:41:22.989Z,7.88
2022-12-20T22:43:50.578Z,8.23
2022-12-20T22:46:18.902Z,8.40
2022-12-20T22:48:46.963Z,7.88
2022-12-20T22:51:16.917Z,7.70
2022-12-20T22:53:45.407Z,7.50
2022-12-20T22:56:14.436Z,7.88
2022-12-20T22:58:42.112Z,7.80
2022-12-20T23:01:12.734Z,7.78
2022-12-20T23:03:40.894Z,7.45
2022-12-20T23:06:11.410Z,8.70
2022-12-20T23:08:39.389Z,8.45
2022-12-20T23:11:38.545Z,7.20
2022-12-20T23:14:29.062Z,7.22
2022-12-20T23:16:58.055Z,7.15
2022-12-20T23:22:11.737Z,6.47
2022-12-20T23:24:39.215Z,6.97
2022-12-20T23:27:06.614Z,7.38
2022-12-20T23:29:34.146Z,7.47
2022-12-20T23:32:01.846Z,6.95
2022-12-20T23:34:29.360Z,7.40
2022-12-20T23:36:56.764Z,6.82
2022-12-20T23:39:24.199Z,6.68
2022-12-20T23:41:51.732Z,6.57
2022-12-20T23:44:19.411Z,7.07
2022-12-20T23:46:46.837Z,7.85
2022-12-20T23:49:14.318Z,7.03
2022-12-20T23:51:42.603Z,6.28
2022-12-20T23:56:38.378Z,6.47
2022-12-20T23:59:05.855Z,6.78
